Time;durP1;ratioP1;P1;durP2;ratioP2;P2;SDS_P1;SDS_P2;PMS_P1;PMS_P2;Temp;Humidity;BMP_temperature;BMP_pressure;BME280_temperature;BME280_humidity;BME280_pressure;Samples;Min_cycle;Max_cycle;Signal;HPM_P1;HPM_P2
2023/08/09 00:02:15;;;;;;;1.10;1.10;;;;;;;;;;5052380;28;20087;-83
2023/08/09 00:04:41;;;;;;;1.63;0.90;;;;;;;;;;5035432;28;20033;-82
2023/08/09 00:07:06;;;;;;;0.82;0.82;;;;;;;;;;5053254;28;20032;-82
2023/08/09 00:09:32;;;;;;;0.77;0.77;;;;;;;;;;5053534;28;20036;-82
2023/08/09 00:11:57;;;;;;;2.15;1.00;;;;;;;;;;5053443;28;20037;-82
2023/08/09 00:14:23;;;;;;;0.80;0.80;;;;;;;;;;5053137;28;20365;-82
2023/08/09 00:16:48;;;;;;;0.80;0.80;;;;;;;;;;5053156;28;20028;-82
2023/08/09 00:19:13;;;;;;;1.10;1.00;;;;;;;;;;5053323;28;20356;-82
2023/08/09 00:21:39;;;;;;;0.90;0.90;;;;;;;;;;5051868;28;20029;-83
2023/08/09 00:24:05;;;;;;;1.55;1.17;;;;;;;;;;5051949;28;20029;-82
2023/08/09 00:26:30;;;;;;;1.15;0.80;;;;;;;;;;5052141;28;20087;-82
2023/08/09 00:28:56;;;;;;;2.47;0.82;;;;;;;;;;5053089;28;20025;-82
2023/08/09 00:31:22;;;;;;;0.82;0.82;;;;;;;;;;5051769;28;20037;-82
2023/08/09 00:33:48;;;;;;;0.82;0.82;;;;;;;;;;5052776;28;20057;-82
2023/08/09 00:36:15;;;;;;;1.10;1.00;;;;;;;;;;5053545;28;20186;-82
2023/08/09 00:38:41;;;;;;;0.90;0.90;;;;;;;;;;5051803;28;20037;-82
2023/08/09 00:41:06;;;;;;;1.20;1.10;;;;;;;;;;5051634;28;20037;-82
2023/08/09 00:43:32;;;;;;;1.00;1.00;;;;;;;;;;5051644;28;20159;-83
2023/08/09 00:45:57;;;;;;;1.13;1.10;;;;;;;;;;5053109;28;20025;-82
2023/08/09 00:48:23;;;;;;;1.60;1.17;;;;;;;;;;5051942;28;20036;-82
2023/08/09 00:50:48;;;;;;;0.95;0.95;;;;;;;;;;5051890;28;20021;-82
2023/08/09 00:53:15;;;;;;;1.15;1.05;;;;;;;;;;5052951;28;20491;-82
2023/08/09 00:55:40;;;;;;;2.78;1.10;;;;;;;;;;5052125;28;20112;-82
2023/08/09 00:58:06;;;;;;;1.10;1.10;;;;;;;;;;5035282;28;20510;-82
2023/08/09 01:00:31;;;;;;;1.48;1.30;;;;;;;;;;5051487;28;20040;-82
2023/08/09 01:02:58;;;;;;;1.20;1.10;;;;;;;;;;5052933;28;20039;-83
2023/08/09 01:05:27;;;;;;;1.20;1.10;;;;;;;;;;5051758;28;20025;-82
2023/08/09 01:07:54;;;;;;;0.90;0.90;;;;;;;;;;5035987;28;20033;-82
2023/08/09 01:10:33;;;;;;;1.08;1.08;;;;;;;;;;5055295;28;20025;-81
2023/08/09 01:13:06;;;;;;;1.23;1.13;;;;;;;;;;5055428;28;20060;-82
2023/08/09 01:15:36;;;;;;;1.40;1.20;;;;;;;;;;5055322;28;20392;-81
2023/08/09 01:18:03;;;;;;;1.15;1.05;;;;;;;;;;5056780;28;20029;-82
2023/08/09 01:20:30;;;;;;;1.30;1.20;;;;;;;;;;5054976;28;20043;-82
2023/08/09 01:23:03;;;;;;;3.25;1.25;;;;;;;;;;5055303;28;20074;-83
2023/08/09 01:25:32;;;;;;;1.17;1.10;;;;;;;;;;5088480;28;20032;-81
2023/08/09 01:27:58;;;;;;;1.20;1.10;;;;;;;;;;5054912;28;20270;-82
2023/08/09 01:30:24;;;;;;;1.30;1.20;;;;;;;;;;5055013;28;20541;-82
2023/08/09 01:32:49;;;;;;;1.35;1.23;;;;;;;;;;5054855;28;20057;-81
2023/08/09 01:35:16;;;;;;;1.27;1.20;;;;;;;;;;5055060;28;20029;-82
2023/08/09 01:37:44;;;;;;;1.25;1.15;;;;;;;;;;5055026;28;20029;-82
2023/08/09 01:40:12;;;;;;;1.33;1.23;;;;;;;;;;5056004;28;20021;-82
2023/08/09 01:42:39;;;;;;;1.38;1.27;;;;;;;;;;5054683;28;20509;-81
2023/08/09 01:45:06;;;;;;;1.40;1.30;;;;;;;;;;5056169;28;20379;-82
2023/08/09 01:47:32;;;;;;;1.35;1.25;;;;;;;;;;5054613;28;20025;-82
2023/08/09 01:49:58;;;;;;;2.65;1.48;;;;;;;;;;5054591;28;20029;-82
2023/08/09 01:52:23;;;;;;;1.58;1.42;;;;;;;;;;5055784;28;20021;-82
2023/08/09 01:54:49;;;;;;;1.17;1.17;;;;;;;;;;5054642;28;20056;-81
2023/08/09 01:57:14;;;;;;;1.40;1.30;;;;;;;;;;5054741;28;20039;-82
2023/08/09 01:59:42;;;;;;;1.50;1.40;;;;;;;;;;5055577;28;20487;-82
2023/08/09 02:02:07;;;;;;;1.55;1.45;;;;;;;;;;5054519;28;20029;-82
2023/08/09 02:04:33;;;;;;;1.50;1.40;;;;;;;;;;5054270;28;20498;-81
2023/08/09 02:06:58;;;;;;;1.40;1.35;;;;;;;;;;5054520;28;20033;-81
2023/08/09 02:09:26;;;;;;;1.45;1.35;;;;;;;;;;5054132;28;20446;-81
2023/08/09 02:11:52;;;;;;;1.60;1.50;;;;;;;;;;5054478;28;20387;-82
2023/08/09 02:14:18;;;;;;;1.40;1.30;;;;;;;;;;5054094;28;20021;-82
2023/08/09 02:16:43;;;;;;;1.50;1.40;;;;;;;;;;5037499;28;20040;-82
2023/08/09 02:19:09;;;;;;;1.70;1.60;;;;;;;;;;5053432;28;20040;-82
2023/08/09 02:21:38;;;;;;;1.50;1.40;;;;;;;;;;5053943;28;20399;-82
2023/08/09 02:24:03;;;;;;;1.63;1.52;;;;;;;;;;5054198;28;20021;-82
2023/08/09 02:26:29;;;;;;;2.22;1.50;;;;;;;;;;5053810;28;20400;-83
2023/08/09 02:28:54;;;;;;;1.30;1.20;;;;;;;;;;5053678;28;20079;-82
2023/08/09 02:31:20;;;;;;;2.55;1.40;;;;;;;;;;5055543;28;20044;-82
2023/08/09 02:33:45;;;;;;;1.50;1.40;;;;;;;;;;5054216;28;20091;-82
2023/08/09 02:36:11;;;;;;;1.30;1.20;;;;;;;;;;5053924;28;20043;-83
2023/08/09 02:38:37;;;;;;;1.40;1.30;;;;;;;;;;5053878;28;20091;-83
2023/08/09 02:41:04;;;;;;;1.50;1.40;;;;;;;;;;5054722;28;20472;-82
2023/08/09 02:43:29;;;;;;;1.45;1.30;;;;;;;;;;5055008;28;20064;-83
2023/08/09 02:45:56;;;;;;;1.10;1.10;;;;;;;;;;5053460;28;20056;-83
2023/08/09 02:48:22;;;;;;;1.30;1.20;;;;;;;;;;5036738;28;20048;-82
2023/08/09 02:50:48;;;;;;;1.15;1.05;;;;;;;;;;5054477;28;20029;-82
2023/08/09 02:53:15;;;;;;;1.30;1.20;;;;;;;;;;5053288;28;20029;-82
2023/08/09 02:55:40;;;;;;;1.10;1.10;;;;;;;;;;5053579;28;20032;-83
2023/08/09 02:58:06;;;;;;;1.13;1.02;;;;;;;;;;5053510;28;20043;-82
2023/08/09 03:00:32;;;;;;;1.05;1.05;;;;;;;;;;5053368;28;20383;-83
2023/08/09 03:02:58;;;;;;;1.30;1.20;;;;;;;;;;5053409;28;20033;-83
2023/08/09 03:05:24;;;;;;;1.55;1.20;;;;;;;;;;5036416;28;20143;-82
2023/08/09 03:07:49;;;;;;;1.20;1.10;;;;;;;;;;5053069;28;20094;-83
2023/08/09 03:10:15;;;;;;;1.10;1.00;;;;;;;;;;5053017;28;20048;-83
2023/08/09 03:12:40;;;;;;;1.42;1.10;;;;;;;;;;5054388;28;20480;-82
2023/08/09 03:15:06;;;;;;;1.00;0.98;;;;;;;;;;5054497;28;20078;-82
2023/08/09 03:17:32;;;;;;;1.05;1.05;;;;;;;;;;5054616;28;20206;-82
2023/08/09 03:19:57;;;;;;;0.85;0.85;;;;;;;;;;5036382;28;20506;-82
2023/08/09 03:22:23;;;;;;;1.00;1.00;;;;;;;;;;5053137;28;20062;-82
2023/08/09 03:24:49;;;;;;;1.00;1.00;;;;;;;;;;5053044;28;20028;-82
2023/08/09 03:27:14;;;;;;;1.10;1.10;;;;;;;;;;5035965;28;20473;-83
2023/08/09 03:29:40;;;;;;;0.98;0.98;;;;;;;;;;5052843;28;20443;-83
2023/08/09 03:32:05;;;;;;;0.95;0.95;;;;;;;;;;5053375;28;20372;-82
2023/08/09 03:34:31;;;;;;;0.98;0.98;;;;;;;;;;5052818;28;20056;-83
2023/08/09 03:36:56;;;;;;;0.93;0.93;;;;;;;;;;5053989;28;20163;-82
2023/08/09 03:39:21;;;;;;;1.17;1.10;;;;;;;;;;5053834;28;20029;-83
2023/08/09 03:41:47;;;;;;;0.90;0.90;;;;;;;;;;5035751;28;20033;-82
2023/08/09 03:44:13;;;;;;;0.85;0.85;;;;;;;;;;5053623;28;20464;-82
2023/08/09 03:46:39;;;;;;;0.90;0.90;;;;;;;;;;5054123;28;20029;-82
2023/08/09 03:49:04;;;;;;;0.90;0.90;;;;;;;;;;5052592;28;20049;-83
2023/08/09 03:51:30;;;;;;;0.95;0.95;;;;;;;;;;5052485;28;20116;-82
2023/08/09 03:53:55;;;;;;;0.95;0.95;;;;;;;;;;5053937;28;20032;-82
2023/08/09 03:56:21;;;;;;;0.90;0.90;;;;;;;;;;5052531;28;20036;-82
2023/08/09 03:58:46;;;;;;;1.10;1.00;;;;;;;;;;5053711;28;20029;-82
2023/08/09 04:01:12;;;;;;;1.10;1.00;;;;;;;;;;5053577;28;20369;-81
2023/08/09 04:03:38;;;;;;;0.93;0.93;;;;;;;;;;5052557;28;20024;-82
2023/08/09 04:06:05;;;;;;;2.92;1.00;;;;;;;;;;5053417;28;20021;-82
2023/08/09 04:08:31;;;;;;;1.15;0.90;;;;;;;;;;5053705;28;20033;-82
2023/08/09 04:10:57;;;;;;;0.90;0.90;;;;;;;;;;5052233;28;20036;-82
2023/08/09 04:13:22;;;;;;;1.02;0.90;;;;;;;;;;5052014;28;20033;-82
2023/08/09 04:15:47;;;;;;;0.80;0.80;;;;;;;;;;5053537;28;20029;-83
2023/08/09 04:18:14;;;;;;;0.80;0.80;;;;;;;;;;5051997;28;20028;-82
2023/08/09 04:20:40;;;;;;;0.82;0.82;;;;;;;;;;5051945;28;20103;-82
2023/08/09 04:23:06;;;;;;;0.70;0.70;;;;;;;;;;5052160;28;20029;-82
2023/08/09 04:25:31;;;;;;;0.57;0.57;;;;;;;;;;5051893;28;20040;-82
2023/08/09 04:27:56;;;;;;;2.17;0.88;;;;;;;;;;5052083;28;20491;-82
2023/08/09 04:30:23;;;;;;;0.80;0.80;;;;;;;;;;5052916;28;20036;-82
2023/08/09 04:32:48;;;;;;;0.70;0.70;;;;;;;;;;5051654;28;20060;-82
2023/08/09 04:35:14;;;;;;;1.02;1.00;;;;;;;;;;5053002;28;20036;-82
2023/08/09 04:37:40;;;;;;;0.90;0.88;;;;;;;;;;5053057;28;20029;-82
2023/08/09 04:40:10;;;;;;;0.77;0.77;;;;;;;;;;5053051;28;20096;-83
2023/08/09 04:42:42;;;;;;;0.82;0.70;;;;;;;;;;5052607;28;20100;-82
2023/08/09 04:45:12;;;;;;;0.98;0.98;;;;;;;;;;5056052;28;20487;-82
2023/08/09 04:47:37;;;;;;;1.70;0.70;;;;;;;;;;5056586;28;20380;-82
2023/08/09 04:50:04;;;;;;;1.02;0.90;;;;;;;;;;5055961;28;20029;-82
2023/08/09 04:52:30;;;;;;;0.90;0.90;;;;;;;;;;5055662;28;20036;-82
2023/08/09 04:54:56;;;;;;;1.13;1.05;;;;;;;;;;5055970;28;20048;-82
2023/08/09 04:57:22;;;;;;;0.82;0.82;;;;;;;;;;5089203;28;20032;-82
2023/08/09 04:59:47;;;;;;;0.70;0.70;;;;;;;;;;5057580;28;20059;-82
2023/08/09 05:02:13;;;;;;;0.80;0.80;;;;;;;;;;5058257;28;20107;-82
2023/08/09 05:04:38;;;;;;;0.70;0.70;;;;;;;;;;5055705;28;20025;-82
2023/08/09 05:07:04;;;;;;;0.77;0.77;;;;;;;;;;5056993;28;20040;-83
2023/08/09 05:09:30;;;;;;;0.70;0.70;;;;;;;;;;5056937;28;20028;-82
2023/08/09 05:11:56;;;;;;;0.88;0.88;;;;;;;;;;5055704;28;20082;-83
2023/08/09 05:14:22;;;;;;;1.55;1.00;;;;;;;;;;5038735;28;20036;-82
2023/08/09 05:16:47;;;;;;;0.70;0.70;;;;;;;;;;5038717;28;20163;-84
2023/08/09 05:19:12;;;;;;;0.80;0.80;;;;;;;;;;5056698;28;20040;-83
2023/08/09 05:21:38;;;;;;;0.80;0.80;;;;;;;;;;5055482;28;20364;-83
2023/08/09 05:24:04;;;;;;;0.70;0.70;;;;;;;;;;5056747;28;20025;-83
2023/08/09 05:26:29;;;;;;;0.70;0.70;;;;;;;;;;5056936;28;20510;-82
2023/08/09 05:28:54;;;;;;;0.70;0.70;;;;;;;;;;5056252;28;20029;-81
2023/08/09 05:31:20;;;;;;;0.70;0.70;;;;;;;;;;5057101;28;20037;-82
2023/08/09 05:33:45;;;;;;;0.63;0.63;;;;;;;;;;5056055;28;20087;-82
2023/08/09 05:36:10;;;;;;;1.85;0.70;;;;;;;;;;5056127;28;20032;-82
2023/08/09 05:38:36;;;;;;;0.70;0.70;;;;;;;;;;5056321;28;20033;-81
2023/08/09 05:41:01;;;;;;;0.70;0.70;;;;;;;;;;5038147;28;20457;-81
2023/08/09 05:43:26;;;;;;;1.50;0.70;;;;;;;;;;5055958;28;20032;-82
2023/08/09 05:45:52;;;;;;;0.60;0.60;;;;;;;;;;5055914;28;20029;-82
2023/08/09 05:48:18;;;;;;;0.60;0.60;;;;;;;;;;5055852;28;20032;-82
2023/08/09 05:50:43;;;;;;;0.70;0.70;;;;;;;;;;5054926;28;20090;-81
2023/08/09 05:53:09;;;;;;;0.68;0.68;;;;;;;;;;5055715;28;20059;-82
2023/08/09 05:55:35;;;;;;;0.60;0.60;;;;;;;;;;5036764;28;20480;-82
2023/08/09 05:58:00;;;;;;;0.70;0.70;;;;;;;;;;5054769;28;20036;-82
2023/08/09 06:00:26;;;;;;;0.70;0.70;;;;;;;;;;5054503;28;20040;-82
2023/08/09 06:02:52;;;;;;;0.70;0.70;;;;;;;;;;5055847;28;20448;-82
2023/08/09 06:05:22;;;;;;;0.70;0.70;;;;;;;;;;5055810;28;20051;-82
2023/08/09 06:07:48;;;;;;;0.65;0.65;;;;;;;;;;5055595;28;20040;-82
2023/08/09 06:10:13;;;;;;;0.68;0.68;;;;;;;;;;5055570;28;20104;-82
2023/08/09 06:12:38;;;;;;;0.77;0.77;;;;;;;;;;5055690;28;20033;-82
2023/08/09 06:15:04;;;;;;;0.65;0.65;;;;;;;;;;5054070;28;20056;-81
2023/08/09 06:17:30;;;;;;;1.08;0.98;;;;;;;;;;5037586;28;20388;-82
2023/08/09 06:19:55;;;;;;;0.75;0.75;;;;;;;;;;5037477;28;20061;-82
2023/08/09 06:22:20;;;;;;;1.20;1.10;;;;;;;;;;5055568;28;20426;-81
2023/08/09 06:24:46;;;;;;;0.70;0.70;;;;;;;;;;5055551;28;20406;-81
2023/08/09 06:27:11;;;;;;;0.88;0.70;;;;;;;;;;5037317;28;20032;-82
2023/08/09 06:29:36;;;;;;;0.60;0.60;;;;;;;;;;5054153;28;20086;-82
2023/08/09 06:32:02;;;;;;;0.63;0.63;;;;;;;;;;5055187;28;20479;-81
2023/08/09 06:34:27;;;;;;;0.82;0.80;;;;;;;;;;5014044;28;20048;-82
2023/08/09 06:36:53;;;;;;;0.82;0.80;;;;;;;;;;5030989;28;20114;-82
2023/08/09 06:39:19;;;;;;;0.70;0.70;;;;;;;;;;5015380;28;20168;-82
2023/08/09 06:41:44;;;;;;;0.70;0.70;;;;;;;;;;5014267;28;20092;-81
2023/08/09 06:44:10;;;;;;;0.90;0.90;;;;;;;;;;5015179;28;20482;-82
2023/08/09 06:46:35;;;;;;;0.70;0.70;;;;;;;;;;5015600;28;20076;-82
2023/08/09 06:49:00;;;;;;;0.82;0.82;;;;;;;;;;5015343;28;20034;-82
2023/08/09 06:51:26;;;;;;;0.70;0.70;;;;;;;;;;5015176;28;20030;-82
2023/08/09 06:53:51;;;;;;;0.80;0.80;;;;;;;;;;5013949;28;20113;-82
2023/08/09 06:56:16;;;;;;;0.95;0.77;;;;;;;;;;5014031;28;20553;-82
2023/08/09 06:58:42;;;;;;;0.85;0.85;;;;;;;;;;5014800;28;20034;-82
2023/08/09 07:01:09;;;;;;;1.00;1.00;;;;;;;;;;5013809;28;20128;-83
2023/08/09 07:03:35;;;;;;;0.95;0.95;;;;;;;;;;5013421;28;20022;-82
2023/08/09 07:06:01;;;;;;;0.95;0.95;;;;;;;;;;4996797;28;20037;-82
2023/08/09 07:08:27;;;;;;;0.88;0.85;;;;;;;;;;5015017;28;20026;-82
2023/08/09 07:10:52;;;;;;;2.05;0.90;;;;;;;;;;5014858;28;20033;-83
2023/08/09 07:13:18;;;;;;;0.60;0.60;;;;;;;;;;5046301;28;20042;-83
2023/08/09 07:15:43;;;;;;;0.73;0.73;;;;;;;;;;5013416;28;20117;-82
2023/08/09 07:18:09;;;;;;;0.80;0.80;;;;;;;;;;5013588;28;20033;-83
2023/08/09 07:20:34;;;;;;;1.70;0.77;;;;;;;;;;5014660;28;20033;-83
2023/08/09 07:23:00;;;;;;;0.88;0.73;;;;;;;;;;5013180;28;20041;-82
2023/08/09 07:25:25;;;;;;;0.88;0.88;;;;;;;;;;5013451;28;20465;-82
2023/08/09 07:27:51;;;;;;;1.10;1.00;;;;;;;;;;5014376;28;20083;-82
2023/08/09 07:30:17;;;;;;;0.90;0.90;;;;;;;;;;5012794;28;20034;-82
2023/08/09 07:32:43;;;;;;;1.63;1.00;;;;;;;;;;5024387;28;20053;-82
2023/08/09 07:35:09;;;;;;;0.90;0.80;;;;;;;;;;5052922;28;20091;-81
2023/08/09 07:37:38;;;;;;;1.00;0.90;;;;;;;;;;5052944;28;20325;-81
2023/08/09 07:40:07;;;;;;;1.40;1.00;;;;;;;;;;5052663;28;20437;-82
2023/08/09 07:42:34;;;;;;;1.85;1.00;;;;;;;;;;5053738;28;20040;-81
2023/08/09 07:45:00;;;;;;;0.95;0.85;;;;;;;;;;5052430;28;20113;-81
2023/08/09 07:47:25;;;;;;;0.88;0.88;;;;;;;;;;5052325;28;20128;-82
2023/08/09 07:49:51;;;;;;;0.82;0.82;;;;;;;;;;5052374;28;20078;-81
2023/08/09 07:52:16;;;;;;;0.90;0.90;;;;;;;;;;5052288;28;20502;-82
2023/08/09 07:54:43;;;;;;;1.17;1.08;;;;;;;;;;5052515;28;20037;-82
2023/08/09 07:57:09;;;;;;;1.35;1.20;;;;;;;;;;5052331;28;20029;-82
2023/08/09 07:59:34;;;;;;;0.98;0.80;;;;;;;;;;5052575;28;20029;-82
2023/08/09 08:02:00;;;;;;;1.58;0.80;;;;;;;;;;5052414;28;20029;-82
2023/08/09 08:04:25;;;;;;;0.80;0.80;;;;;;;;;;5052275;28;20025;-82
2023/08/09 08:06:50;;;;;;;0.82;0.82;;;;;;;;;;5052446;28;20107;-81
2023/08/09 08:09:18;;;;;;;1.00;0.88;;;;;;;;;;5052236;28;20043;-81
2023/08/09 08:11:43;;;;;;;1.90;1.25;;;;;;;;;;5052114;28;20044;-82
2023/08/09 08:14:09;;;;;;;1.58;1.40;;;;;;;;;;5052006;28;20033;-82
2023/08/09 08:16:35;;;;;;;3.08;1.20;;;;;;;;;;5035883;28;20033;-83
2023/08/09 08:19:01;;;;;;;1.17;1.08;;;;;;;;;;5051990;28;20040;-82
2023/08/09 08:21:27;;;;;;;2.70;1.02;;;;;;;;;;5053272;28;20020;-82
2023/08/09 08:23:53;;;;;;;4.18;1.30;;;;;;;;;;5053230;28;20036;-81
2023/08/09 08:26:18;;;;;;;1.23;1.10;;;;;;;;;;5052108;28;20399;-81
2023/08/09 08:28:44;;;;;;;1.73;1.20;;;;;;;;;;5053369;28;20032;-82
2023/08/09 08:31:10;;;;;;;2.13;1.25;;;;;;;;;;5035359;28;20029;-83
2023/08/09 08:33:35;;;;;;;1.83;1.13;;;;;;;;;;5051664;28;20073;-82
2023/08/09 08:36:01;;;;;;;1.63;1.40;;;;;;;;;;5035366;28;20445;-82
2023/08/09 08:38:27;;;;;;;1.77;1.30;;;;;;;;;;5051825;28;20391;-81
2023/08/09 08:40:54;;;;;;;3.67;1.85;;;;;;;;;;5053146;28;20237;-81
2023/08/09 08:43:19;;;;;;;1.75;1.17;;;;;;;;;;5051730;28;20036;-81
2023/08/09 08:45:47;;;;;;;1.02;1.02;;;;;;;;;;5053056;28;20041;-80
2023/08/09 08:48:12;;;;;;;1.13;1.02;;;;;;;;;;5035345;28;20029;-81
2023/08/09 08:50:39;;;;;;;1.38;1.10;;;;;;;;;;5053522;28;20115;-79
2023/08/09 08:53:05;;;;;;;1.75;1.05;;;;;;;;;;5051904;28;20028;-79
2023/08/09 08:55:30;;;;;;;1.42;1.33;;;;;;;;;;5052581;28;20107;-79
2023/08/09 08:57:56;;;;;;;2.00;1.33;;;;;;;;;;5052247;28;20031;-78
2023/08/09 09:00:22;;;;;;;3.60;1.10;;;;;;;;;;5051925;28;20399;-82
2023/08/09 09:02:48;;;;;;;4.50;1.00;;;;;;;;;;5052050;28;20025;-79
2023/08/09 09:05:14;;;;;;;2.58;1.00;;;;;;;;;;5052030;28;20017;-80
2023/08/09 09:07:45;;;;;;;5.10;0.93;;;;;;;;;;5052902;28;20112;-80
2023/08/09 09:10:12;;;;;;;2.25;1.17;;;;;;;;;;5035547;28;20599;-78
2023/08/09 09:12:38;;;;;;;1.80;1.27;;;;;;;;;;5052804;28;20053;-80
2023/08/09 09:15:06;;;;;;;4.78;1.50;;;;;;;;;;5051530;28;20154;-80
2023/08/09 09:17:43;;;;;;;2.80;1.35;;;;;;;;;;5051512;28;20100;-79
2023/08/09 09:20:29;;;;;;;3.55;1.17;;;;;;;;;;5051644;28;20100;-79
2023/08/09 09:22:55;;;;;;;2.08;1.30;;;;;;;;;;5051516;28;20029;-79
2023/08/09 09:25:22;;;;;;;3.70;1.30;;;;;;;;;;5034953;28;20116;-79
2023/08/09 09:27:52;;;;;;;2.00;1.15;;;;;;;;;;5052729;28;20021;-82
2023/08/09 09:30:19;;;;;;;2.70;1.20;;;;;;;;;;5054577;28;20525;-80
2023/08/09 09:32:51;;;;;;;7.45;1.33;;;;;;;;;;5056410;28;20063;-81
2023/08/09 09:35:27;;;;;;;3.95;1.30;;;;;;;;;;5055975;28;20041;-81
2023/08/09 09:37:59;;;;;;;3.47;1.15;;;;;;;;;;5039199;28;20432;-81
2023/08/09 09:40:32;;;;;;;2.00;1.13;;;;;;;;;;5055028;28;20025;-81
2023/08/09 09:42:59;;;;;;;7.78;1.60;;;;;;;;;;5038330;28;20025;-80
2023/08/09 09:45:34;;;;;;;4.43;1.20;;;;;;;;;;5055486;28;20021;-81
2023/08/09 09:48:00;;;;;;;4.13;1.45;;;;;;;;;;5054874;28;20124;-80
2023/08/09 09:50:28;;;;;;;3.90;1.42;;;;;;;;;;5055983;28;20028;-81
2023/08/09 09:52:54;;;;;;;7.88;1.70;;;;;;;;;;5037922;28;20025;-83
2023/08/09 09:55:20;;;;;;;4.50;1.45;;;;;;;;;;5056028;28;20033;-82
2023/08/09 09:57:47;;;;;;;4.95;1.48;;;;;;;;;;5038318;28;20432;-81
2023/08/09 10:00:16;;;;;;;4.40;1.30;;;;;;;;;;5055144;28;20117;-83
2023/08/09 10:02:47;;;;;;;6.47;1.33;;;;;;;;;;5054606;28;20040;-82
2023/08/09 10:05:36;;;;;;;3.17;1.30;;;;;;;;;;5056594;28;20116;-82
2023/08/09 10:08:06;;;;;;;6.13;1.20;;;;;;;;;;5049224;28;20490;-82
2023/08/09 10:10:32;;;;;;;2.45;1.33;;;;;;;;;;5054860;28;20052;-82
2023/08/09 10:13:01;;;;;;;3.25;1.20;;;;;;;;;;5054775;28;20539;-82
2023/08/09 10:16:10;;;;;;;3.08;1.30;;;;;;;;;;5054505;28;20037;-82
2023/08/09 10:18:48;;;;;;;3.55;1.35;;;;;;;;;;5014043;28;20030;-82
2023/08/09 10:21:16;;;;;;;4.47;1.20;;;;;;;;;;5014253;28;20041;-82
2023/08/09 10:24:06;;;;;;;5.03;1.20;;;;;;;;;;5014691;28;20115;-82
2023/08/09 10:26:32;;;;;;;4.00;1.30;;;;;;;;;;5014022;28;20049;-81
2023/08/09 10:29:04;;;;;;;1.05;0.95;;;;;;;;;;4997037;28;20184;-81
2023/08/09 10:31:52;;;;;;;2.50;1.20;;;;;;;;;;5013466;28;20038;-82
2023/08/09 10:34:20;;;;;;;1.90;1.10;;;;;;;;;;5013905;28;20038;-82
2023/08/09 10:36:56;;;;;;;3.75;1.40;;;;;;;;;;5013470;28;20032;-83
2023/08/09 10:39:22;;;;;;;3.33;1.20;;;;;;;;;;5013875;28;20041;-83
2023/08/09 10:42:06;;;;;;;1.67;1.13;;;;;;;;;;5014429;28;20061;-83
2023/08/09 10:44:32;;;;;;;2.17;1.05;;;;;;;;;;5014116;28;20493;-83
2023/08/09 10:47:07;;;;;;;2.05;1.17;;;;;;;;;;5013383;28;20034;-84
2023/08/09 10:49:48;;;;;;;2.75;1.10;;;;;;;;;;5013559;28;20097;-81
2023/08/09 10:52:15;;;;;;;1.15;1.05;;;;;;;;;;5029293;28;20436;-82
2023/08/09 10:54:40;;;;;;;3.33;1.20;;;;;;;;;;5053791;28;20033;-82
2023/08/09 10:57:10;;;;;;;2.65;1.20;;;;;;;;;;5053787;28;20499;-82
2023/08/09 10:59:41;;;;;;;1.77;1.20;;;;;;;;;;5055302;28;20412;-81
2023/08/09 11:02:07;;;;;;;2.22;1.25;;;;;;;;;;5055077;28;20147;-81
2023/08/09 11:04:33;;;;;;;1.75;1.30;;;;;;;;;;5054282;28;20048;-82
2023/08/09 11:06:58;;;;;;;1.67;1.17;;;;;;;;;;5053238;28;20361;-82
2023/08/09 11:09:26;;;;;;;2.15;1.30;;;;;;;;;;5053215;28;20028;-82
2023/08/09 11:11:52;;;;;;;1.65;1.10;;;;;;;;;;5053178;28;20028;-80
2023/08/09 11:14:19;;;;;;;1.83;1.10;;;;;;;;;;5054881;28;20029;-82
2023/08/09 11:16:45;;;;;;;1.67;1.08;;;;;;;;;;5065218;28;20103;-82
2023/08/09 11:19:19;;;;;;;1.08;1.02;;;;;;;;;;5073432;28;20039;-82
2023/08/09 11:21:48;;;;;;;2.40;1.20;;;;;;;;;;5073535;28;20031;-82
2023/08/09 11:24:15;;;;;;;2.35;0.95;;;;;;;;;;5070046;28;20013;-82
2023/08/09 11:26:52;;;;;;;1.10;1.00;;;;;;;;;;5079829;28;20040;-82
2023/08/09 11:29:18;;;;;;;1.50;1.10;;;;;;;;;;5075857;28;20020;-81
2023/08/09 11:31:53;;;;;;;1.23;0.93;;;;;;;;;;5094326;28;20047;-81
2023/08/09 11:34:20;;;;;;;1.02;0.90;;;;;;;;;;5075918;28;20469;-81
2023/08/09 11:36:47;;;;;;;1.20;1.10;;;;;;;;;;5093094;28;20479;-81
2023/08/09 11:39:13;;;;;;;4.20;1.00;;;;;;;;;;5076267;28;20032;-81
2023/08/09 11:42:06;;;;;;;1.60;1.20;;;;;;;;;;5085692;28;20056;-81
2023/08/09 11:44:34;;;;;;;1.25;1.02;;;;;;;;;;5058827;28;20047;-81
2023/08/09 11:47:00;;;;;;;1.52;1.00;;;;;;;;;;5077236;28;20028;-80
2023/08/09 11:49:30;;;;;;;0.95;0.82;;;;;;;;;;5076595;28;20024;-81
2023/08/09 11:51:55;;;;;;;1.80;0.90;;;;;;;;;;5074451;28;20028;-82
2023/08/09 11:54:21;;;;;;;1.25;1.10;;;;;;;;;;5084848;28;20043;-82
2023/08/09 11:56:47;;;;;;;2.05;0.93;;;;;;;;;;5052752;28;20062;-81
2023/08/09 11:59:16;;;;;;;0.80;0.80;;;;;;;;;;5056361;28;20125;-82
2023/08/09 12:01:45;;;;;;;1.70;1.10;;;;;;;;;;5073384;28;20115;-81
2023/08/09 12:04:13;;;;;;;1.52;0.90;;;;;;;;;;5075285;28;20020;-81
2023/08/09 12:06:41;;;;;;;1.45;0.95;;;;;;;;;;5074807;28;20032;-81
2023/08/09 12:09:39;;;;;;;1.45;1.20;;;;;;;;;;5076931;28;20020;-81
2023/08/09 12:12:11;;;;;;;1.23;1.00;;;;;;;;;;5077213;28;20074;-81
2023/08/09 12:14:39;;;;;;;5.35;1.33;;;;;;;;;;5076486;28;20024;-81
2023/08/09 12:17:05;;;;;;;2.22;0.90;;;;;;;;;;5092978;28;20029;-81
2023/08/09 12:19:30;;;;;;;1.23;1.00;;;;;;;;;;5074907;28;20468;-81
2023/08/09 12:21:57;;;;;;;1.77;1.10;;;;;;;;;;5061976;28;20468;-83
2023/08/09 12:24:22;;;;;;;0.80;0.80;;;;;;;;;;5082975;28;20378;-81
2023/08/09 12:26:48;;;;;;;1.45;1.00;;;;;;;;;;5087199;28;20036;-81
2023/08/09 12:29:14;;;;;;;0.80;0.80;;;;;;;;;;5055141;28;20033;-83
2023/08/09 12:31:40;;;;;;;3.55;1.00;;;;;;;;;;5072369;28;20036;-81
2023/08/09 12:34:08;;;;;;;2.40;1.02;;;;;;;;;;5071846;28;20048;-81
2023/08/09 12:36:34;;;;;;;1.05;0.82;;;;;;;;;;5059649;28;20051;-82
2023/08/09 12:38:59;;;;;;;1.77;1.08;;;;;;;;;;5093371;28;20536;-83
2023/08/09 12:41:25;;;;;;;1.02;0.80;;;;;;;;;;5093098;28;20043;-81
2023/08/09 12:43:50;;;;;;;1.52;0.80;;;;;;;;;;5092298;28;20058;-81
2023/08/09 12:46:17;;;;;;;1.52;1.00;;;;;;;;;;5091978;28;20098;-81
2023/08/09 12:48:42;;;;;;;1.88;1.00;;;;;;;;;;5092216;28;20466;-81
2023/08/09 12:51:07;;;;;;;1.00;0.80;;;;;;;;;;5091839;28;20024;-81
2023/08/09 12:53:33;;;;;;;2.22;1.20;;;;;;;;;;5073254;28;20032;-82
2023/08/09 12:55:58;;;;;;;1.20;1.10;;;;;;;;;;5092437;28;20024;-81
2023/08/09 12:58:24;;;;;;;1.40;1.00;;;;;;;;;;5073624;28;20037;-81
2023/08/09 13:00:50;;;;;;;1.13;0.80;;;;;;;;;;5073200;28;20479;-81
2023/08/09 13:03:15;;;;;;;0.98;0.98;;;;;;;;;;5088679;28;20475;-81
2023/08/09 13:05:43;;;;;;;0.80;0.80;;;;;;;;;;5075588;28;20394;-81
2023/08/09 13:08:08;;;;;;;0.90;0.90;;;;;;;;;;5059270;28;20029;-81
2023/08/09 13:10:34;;;;;;;1.10;0.95;;;;;;;;;;5076762;28;20066;-81
2023/08/09 13:12:59;;;;;;;1.02;0.90;;;;;;;;;;5090828;28;20020;-81
2023/08/09 13:15:25;;;;;;;0.70;0.65;;;;;;;;;;5096953;28;20032;-81
2023/08/09 13:17:50;;;;;;;0.75;0.75;;;;;;;;;;5095381;28;20123;-82
2023/08/09 13:20:16;;;;;;;1.45;1.00;;;;;;;;;;5095670;28;20069;-82
2023/08/09 13:22:42;;;;;;;0.95;0.82;;;;;;;;;;5096495;28;20060;-81
2023/08/09 13:25:08;;;;;;;0.70;0.70;;;;;;;;;;5096466;28;20027;-81
2023/08/09 13:27:38;;;;;;;1.25;0.90;;;;;;;;;;5085514;28;20082;-81
2023/08/09 13:30:05;;;;;;;0.98;0.80;;;;;;;;;;5075192;28;20067;-81
2023/08/09 13:32:32;;;;;;;0.90;0.90;;;;;;;;;;5075283;28;20040;-81
2023/08/09 13:34:58;;;;;;;1.83;0.90;;;;;;;;;;5074823;28;20045;-81
2023/08/09 13:37:24;;;;;;;0.95;0.90;;;;;;;;;;5074990;28;20041;-81
2023/08/09 13:39:49;;;;;;;0.80;0.80;;;;;;;;;;5076062;28;20113;-81
2023/08/09 13:42:14;;;;;;;0.77;0.77;;;;;;;;;;5058101;28;20032;-81
2023/08/09 13:44:40;;;;;;;2.03;0.80;;;;;;;;;;5076034;28;20024;-82
2023/08/09 13:47:06;;;;;;;1.40;0.98;;;;;;;;;;5076272;28;20479;-81
2023/08/09 13:49:32;;;;;;;2.33;0.80;;;;;;;;;;5058074;28;20086;-82
2023/08/09 13:51:57;;;;;;;1.77;0.95;;;;;;;;;;5074510;28;20033;-81
2023/08/09 13:54:22;;;;;;;1.40;0.98;;;;;;;;;;5066310;28;20032;-81
2023/08/09 13:56:48;;;;;;;1.58;0.80;;;;;;;;;;5067280;28;20132;-82
2023/08/09 13:59:14;;;;;;;1.10;0.88;;;;;;;;;;5075964;28;20039;-81
2023/08/09 14:01:40;;;;;;;1.50;0.73;;;;;;;;;;5075937;28;20426;-81
2023/08/09 14:04:05;;;;;;;0.95;0.70;;;;;;;;;;5074557;28;20029;-81
2023/08/09 14:06:31;;;;;;;1.85;1.10;;;;;;;;;;5074712;28;20499;-81
2023/08/09 14:08:56;;;;;;;1.10;0.75;;;;;;;;;;5075731;28;20471;-81
2023/08/09 14:11:22;;;;;;;0.80;0.80;;;;;;;;;;5074489;28;20085;-81
2023/08/09 14:13:48;;;;;;;1.45;0.98;;;;;;;;;;5076373;28;20160;-82
2023/08/09 14:16:13;;;;;;;1.17;0.60;;;;;;;;;;5056837;28;20531;-81
2023/08/09 14:18:39;;;;;;;1.27;0.90;;;;;;;;;;5074273;28;20036;-82
2023/08/09 14:21:04;;;;;;;2.05;0.85;;;;;;;;;;5074275;28;20032;-83
2023/08/09 14:23:30;;;;;;;1.38;0.82;;;;;;;;;;5074325;28;20020;-82
2023/08/09 14:25:55;;;;;;;1.27;1.00;;;;;;;;;;5075749;28;20033;-81
2023/08/09 14:28:22;;;;;;;1.55;0.85;;;;;;;;;;5075242;28;20067;-80
2023/08/09 14:30:48;;;;;;;2.40;1.00;;;;;;;;;;5073903;28;20033;-79
2023/08/09 14:33:14;;;;;;;1.42;0.80;;;;;;;;;;5074132;28;20024;-81
2023/08/09 14:35:40;;;;;;;1.70;1.00;;;;;;;;;;5107927;28;20028;-81
2023/08/09 14:38:05;;;;;;;2.08;1.15;;;;;;;;;;5057371;28;20078;-83
2023/08/09 14:40:32;;;;;;;1.58;0.90;;;;;;;;;;5074544;28;20039;-82
2023/08/09 14:42:58;;;;;;;3.25;0.90;;;;;;;;;;5074262;28;20050;-81